createdAt,value
2017-05-04T00:02:29.526Z,93.50
2017-05-04T00:04:59.120Z,94.20
2017-05-04T00:07:30.395Z,94.20
2017-05-04T00:10:00.071Z,94.30
2017-05-04T00:12:29.619Z,94.00
2017-05-04T00:14:59.483Z,94.20
2017-05-04T00:17:29.762Z,93.70
2017-05-04T00:19:59.343Z,94.10
2017-05-04T00:22:28.918Z,94.40
2017-05-04T00:24:59.331Z,94.40
2017-05-04T00:27:28.927Z,93.70
2017-05-04T00:29:58.483Z,94.10
2017-05-04T00:32:28.154Z,93.70
2017-05-04T00:34:58.438Z,93.60
2017-05-04T00:37:27.987Z,94.00
2017-05-04T00:39:58.303Z,94.00
2017-05-04T00:42:28.003Z,94.10
2017-05-04T00:44:57.563Z,94.30
2017-05-04T00:47:27.142Z,94.30
2017-05-04T00:49:56.699Z,94.20
2017-05-04T00:52:26.242Z,94.80
2017-05-04T00:54:56.546Z,94.40
2017-05-04T00:57:26.090Z,94.50
2017-05-04T00:59:56.682Z,94.50
2017-05-04T01:02:26.230Z,94.40
2017-05-04T01:04:55.907Z,94.40
2017-05-04T01:07:26.184Z,94.60
2017-05-04T01:09:55.725Z,94.30
2017-05-04T01:12:25.271Z,94.50
2017-05-04T01:14:54.846Z,94.50
2017-05-04T01:17:25.365Z,94.30
2017-05-04T01:19:54.910Z,94.70
2017-05-04T01:22:25.502Z,94.50
2017-05-04T01:24:55.786Z,94.00
2017-05-04T01:27:25.358Z,94.30
2017-05-04T01:29:55.958Z,94.70
2017-05-04T01:32:25.542Z,94.50
2017-05-04T01:34:55.086Z,94.70
2017-05-04T01:37:25.411Z,94.40
2017-05-04T01:39:55.714Z,94.50
2017-05-04T01:42:25.294Z,94.40
2017-05-04T01:44:54.926Z,94.80
2017-05-04T01:47:24.486Z,94.50
2017-05-04T01:49:54.034Z,94.30
2017-05-04T01:52:23.590Z,94.30
2017-05-04T01:54:53.146Z,94.60
2017-05-04T01:57:22.758Z,94.30
2017-05-04T01:59:52.334Z,94.30
2017-05-04T02:02:21.877Z,94.10
2017-05-04T02:04:52.191Z,94.50
2017-05-04T02:07:21.793Z,94.30
2017-05-04T02:09:51.343Z,94.30
2017-05-04T02:12:20.894Z,94.80
2017-05-04T02:14:50.425Z,94.30
2017-05-04T02:17:20.734Z,94.30
2017-05-04T02:19:51.185Z,94.50
2017-05-04T02:22:21.509Z,94.40
2017-05-04T02:24:51.789Z,94.50
2017-05-04T02:27:21.425Z,94.20
2017-05-04T02:29:51.845Z,94.70
2017-05-04T02:32:21.694Z,94.40
2017-05-04T02:34:51.253Z,94.30
2017-05-04T02:37:20.937Z,94.10
2017-05-04T02:39:51.393Z,94.70
2017-05-04T02:42:20.945Z,94.00
2017-05-04T02:44:50.509Z,94.70
2017-05-04T02:47:20.833Z,94.80
2017-05-04T02:49:50.349Z,94.20
2017-05-04T02:52:20.640Z,94.80
2017-05-04T02:54:50.181Z,94.60
2017-05-04T02:57:20.673Z,95.00
2017-05-04T02:59:50.441Z,94.90
2017-05-04T03:02:20.361Z,94.10
2017-05-04T03:04:50.814Z,93.90
2017-05-04T03:07:20.441Z,94.70
2017-05-04T03:09:49.972Z,94.40
2017-05-04T03:12:20.268Z,94.40
2017-05-04T03:14:49.864Z,94.00
2017-05-04T03:17:19.689Z,94.60
2017-05-04T03:19:49.299Z,94.30
2017-05-04T03:22:18.905Z,93.70
2017-05-04T03:24:49.341Z,93.60
2017-05-04T03:27:19.652Z,93.50
2017-05-04T03:29:49.264Z,94.20
2017-05-04T03:32:19.713Z,94.90
2017-05-04T03:34:50.225Z,94.50
2017-05-04T03:37:21.148Z,93.80
2017-05-04T03:39:50.764Z,93.60
2017-05-04T03:42:21.044Z,93.00
2017-05-04T03:44:50.688Z,93.20
2017-05-04T03:47:20.228Z,93.10
2017-05-04T03:49:49.804Z,93.10
2017-05-04T03:52:19.640Z,93.20
2017-05-04T03:54:49.172Z,92.30
2017-05-04T03:57:19.232Z,92.40
2017-05-04T03:59:48.756Z,92.70
2017-05-04T04:02:18.296Z,93.00
2017-05-04T04:04:47.948Z,92.90
2017-05-04T04:07:17.560Z,93.00
2017-05-04T04:09:48.225Z,93.40
2017-05-04T04:12:17.800Z,92.50
2017-05-04T04:14:47.332Z,92.60
2017-05-04T04:17:16.908Z,92.70
2017-05-04T04:19:46.439Z,92.40
2017-05-04T04:22:16.024Z,92.40
2017-05-04T04:24:46.320Z,92.20
2017-05-04T04:27:16.172Z,92.30
2017-05-04T04:29:46.584Z,92.20
2017-05-04T04:32:16.120Z,91.90
2017-05-04T04:34:45.700Z,91.60
2017-05-04T04:37:16.668Z,91.40
2017-05-04T04:39:46.240Z,91.90
2017-05-04T04:42:15.867Z,91.90
2017-05-04T04:44:45.543Z,91.70
2017-05-04T04:47:15.260Z,91.00
2017-05-04T04:49:44.971Z,91.70
2017-05-04T04:52:14.567Z,91.30
2017-05-04T04:54:44.116Z,90.90
2017-05-04T04:57:14.751Z,91.10
2017-05-04T04:59:45.231Z,91.10
2017-05-04T05:02:15.759Z,91.60
2017-05-04T05:04:45.319Z,91.00
2017-05-04T05:07:14.855Z,90.90
2017-05-04T05:09:44.511Z,91.30
2017-05-04T05:12:15.767Z,91.10
2017-05-04T05:14:45.871Z,91.10
2017-05-04T05:17:15.415Z,91.40
2017-05-04T05:19:44.955Z,91.60
2017-05-04T05:22:14.511Z,91.20
2017-05-04T05:24:44.059Z,91.60
2017-05-04T05:27:13.663Z,91.50
2017-05-04T05:29:43.219Z,91.20
2017-05-04T05:32:12.775Z,91.00
2017-05-04T05:34:42.327Z,91.00
2017-05-04T05:37:11.995Z,91.00
2017-05-04T05:39:41.535Z,91.20
2017-05-04T05:42:11.114Z,91.00
2017-05-04T05:44:40.678Z,91.00
2017-05-04T05:47:10.323Z,91.00
2017-05-04T05:49:40.815Z,91.20
2017-05-04T05:52:10.446Z,90.90
2017-05-04T05:54:40.062Z,91.10
2017-05-04T05:57:09.598Z,90.70
2017-05-04T05:59:39.679Z,90.90
2017-05-04T06:02:09.227Z,90.90
2017-05-04T06:04:38.894Z,90.70
2017-05-04T06:07:08.418Z,90.70
2017-05-04T06:09:37.982Z,90.40
2017-05-04T06:12:08.456Z,90.50
2017-05-04T06:14:38.732Z,90.30
2017-05-04T06:17:08.622Z,90.20
2017-05-04T06:19:39.182Z,89.90
2017-05-04T06:22:08.722Z,89.70
2017-05-04T06:24:39.174Z,89.80
2017-05-04T06:27:08.702Z,88.80
2017-05-04T06:29:38.234Z,88.90
2017-05-04T06:32:07.758Z,87.70
2017-05-04T06:34:38.134Z,88.30
2017-05-04T06:37:07.658Z,88.30
2017-05-04T06:39:37.270Z,87.50
2017-05-04T06:42:06.883Z,87.30
2017-05-04T06:44:36.481Z,87.50
2017-05-04T06:47:06.031Z,86.40
2017-05-04T06:49:35.554Z,86.00
2017-05-04T06:52:05.091Z,86.20
2017-05-04T06:54:34.706Z,85.40
2017-05-04T06:57:04.246Z,85.40
2017-05-04T06:59:33.821Z,85.00
2017-05-04T07:02:03.523Z,85.60
2017-05-04T07:04:33.134Z,85.60
2017-05-04T07:07:02.677Z,85.40
2017-05-04T07:09:32.350Z,85.00
2017-05-04T07:12:01.961Z,85.10
2017-05-04T07:14:32.449Z,86.00
2017-05-04T07:17:02.017Z,85.60
2017-05-04T07:19:32.205Z,86.50
2017-05-04T07:22:01.830Z,86.10
2017-05-04T07:24:32.142Z,85.40
2017-05-04T07:27:01.755Z,84.80
2017-05-04T07:29:31.313Z,85.30
2017-05-04T07:32:00.969Z,84.50
2017-05-04T07:34:31.382Z,84.90
2017-05-04T07:37:00.989Z,84.70
2017-05-04T07:39:30.541Z,85.00
2017-05-04T07:42:00.102Z,84.50
2017-05-04T07:44:29.705Z,84.30
2017-05-04T07:46:59.281Z,84.40
2017-05-04T07:49:28.921Z,83.90
2017-05-04T07:51:58.469Z,82.30
2017-05-04T07:54:28.037Z,84.10
2017-05-04T07:56:57.637Z,84.80
2017-05-04T07:59:27.178Z,83.80
2017-05-04T08:01:56.745Z,83.10
2017-05-04T08:04:26.357Z,82.50
2017-05-04T08:06:55.965Z,83.20
2017-05-04T08:09:26.063Z,83.50
2017-05-04T08:11:55.693Z,83.90
2017-05-04T08:14:25.293Z,83.30
2017-05-04T08:16:54.900Z,83.40
2017-05-04T08:19:24.818Z,82.50
2017-05-04T08:21:54.361Z,82.20
2017-05-04T08:24:23.905Z,82.10
2017-05-04T08:26:53.841Z,81.80
2017-05-04T08:29:23.452Z,82.20
2017-05-04T08:31:53.372Z,81.90
2017-05-04T08:34:23.661Z,83.10
2017-05-04T08:36:54.112Z,82.40
2017-05-04T08:39:23.661Z,81.60
2017-05-04T08:41:53.825Z,81.20
2017-05-04T08:44:23.480Z,81.40
2017-05-04T08:46:53.149Z,81.80
2017-05-04T08:49:22.765Z,81.70
2017-05-04T08:51:54.109Z,80.20
2017-05-04T08:54:23.653Z,80.10
2017-05-04T08:56:53.205Z,81.20
2017-05-04T08:59:22.828Z,80.40
2017-05-04T09:01:53.148Z,79.20
2017-05-04T09:04:22.700Z,80.10
2017-05-04T09:06:52.256Z,79.90
2017-05-04T09:09:21.864Z,80.80
2017-05-04T09:11:51.408Z,79.30
2017-05-04T09:14:20.972Z,78.90
2017-05-04T09:16:50.584Z,78.70
2017-05-04T09:19:20.189Z,79.90
2017-05-04T09:21:49.804Z,79.50
2017-05-04T09:24:19.400Z,80.20
2017-05-04T09:26:48.948Z,80.00
2017-05-04T09:29:18.616Z,79.90
2017-05-04T09:31:48.160Z,79.40
2017-05-04T09:34:17.840Z,78.80
2017-05-04T09:36:48.132Z,79.30
2017-05-04T09:39:17.716Z,78.50
2017-05-04T09:41:47.268Z,77.30
2017-05-04T09:44:17.560Z,78.40
2017-05-04T09:46:47.108Z,77.80
2017-05-04T09:49:17.420Z,78.00
2017-05-04T09:51:47.707Z,77.40
2017-05-04T09:54:17.344Z,76.60
2017-05-04T09:56:47.680Z,77.60
2017-05-04T09:59:17.991Z,77.40
2017-05-04T10:01:48.279Z,76.90
2017-05-04T10:04:18.331Z,76.80
2017-05-04T10:06:48.759Z,76.60
2017-05-04T10:09:20.071Z,76.80
2017-05-04T10:11:49.623Z,76.50
2017-05-04T10:14:20.551Z,77.20
2017-05-04T10:16:50.851Z,76.70
2017-05-04T10:19:20.495Z,77.40
2017-05-04T10:21:50.048Z,76.20
2017-05-04T10:24:19.695Z,76.30
2017-05-04T10:26:49.999Z,77.80
2017-05-04T10:29:20.319Z,76.30
2017-05-04T10:31:49.951Z,75.80
2017-05-04T10:34:20.267Z,75.70
2017-05-04T10:36:50.571Z,73.80
2017-05-04T10:39:20.131Z,73.40
2017-05-04T10:41:49.707Z,73.20
2017-05-04T10:44:20.127Z,74.10
2017-05-04T10:46:50.418Z,74.40
2017-05-04T10:49:20.055Z,73.70
2017-05-04T10:51:50.347Z,71.90
2017-05-04T10:54:19.919Z,72.00
2017-05-04T10:56:49.491Z,72.30
2017-05-04T10:59:20.790Z,73.20
2017-05-04T11:01:50.335Z,71.60
2017-05-04T11:04:19.946Z,69.40
2017-05-04T11:06:49.554Z,72.00
2017-05-04T11:09:20.047Z,68.70
2017-05-04T11:11:49.582Z,68.80
2017-05-04T11:14:19.299Z,68.10
2017-05-04T11:16:48.846Z,68.20
2017-05-04T11:19:18.419Z,68.00
2017-05-04T11:21:48.727Z,68.60
2017-05-04T11:24:18.342Z,67.20
2017-05-04T11:26:48.766Z,68.20
2017-05-04T11:29:18.309Z,67.10
2017-05-04T11:31:47.882Z,64.30
2017-05-04T11:34:18.162Z,64.00
2017-05-04T11:36:47.722Z,61.70
2017-05-04T11:39:18.322Z,64.40
2017-05-04T11:41:47.966Z,62.90
2017-05-04T11:44:17.505Z,62.00
2017-05-04T11:46:47.150Z,63.10
2017-05-04T11:49:16.756Z,61.40
2017-05-04T11:51:47.050Z,60.70
2017-05-04T11:54:16.702Z,62.80
2017-05-04T11:56:47.009Z,60.70
2017-05-04T11:59:16.570Z,60.80
2017-05-04T12:01:46.226Z,59.20
2017-05-04T12:04:15.769Z,60.30
2017-05-04T12:06:45.330Z,58.50
2017-05-04T12:09:14.873Z,59.50
2017-05-04T12:11:45.478Z,61.60
2017-05-04T12:14:15.769Z,63.20
2017-05-04T12:16:45.317Z,63.10
2017-05-04T12:19:15.617Z,60.70
2017-05-04T12:21:45.269Z,59.70
2017-05-04T12:24:15.549Z,61.30
2017-05-04T12:26:45.245Z,59.80
2017-05-04T12:29:14.754Z,60.10
2017-05-04T12:31:44.321Z,59.60
2017-05-04T12:34:13.874Z,59.70
2017-05-04T12:36:43.489Z,59.00
2017-05-04T12:39:13.818Z,59.20
2017-05-04T12:41:44.229Z,58.40
2017-05-04T12:44:13.845Z,57.60
2017-05-04T12:46:43.389Z,57.40
2017-05-04T12:49:12.945Z,57.70
2017-05-04T12:51:42.558Z,56.90
2017-05-04T12:54:12.105Z,56.00
2017-05-04T12:56:41.665Z,55.00
2017-05-04T12:59:11.301Z,55.30
2017-05-04T13:01:41.901Z,56.30
2017-05-04T13:04:11.445Z,55.80
2017-05-04T13:06:41.017Z,56.60
2017-05-04T13:09:10.580Z,56.00
2017-05-04T13:11:40.132Z,56.60
2017-05-04T13:14:10.597Z,55.90
2017-05-04T13:16:40.145Z,56.40
2017-05-04T13:19:09.696Z,56.60
2017-05-04T13:21:39.265Z,56.20
2017-05-04T13:24:08.878Z,56.10
2017-05-04T13:26:38.493Z,57.40
2017-05-04T13:29:08.796Z,56.10
2017-05-04T13:31:38.421Z,58.00
2017-05-04T13:34:08.020Z,57.50
2017-05-04T13:36:39.009Z,55.40
2017-05-04T13:39:08.653Z,56.40
2017-05-04T13:41:38.156Z,56.80
2017-05-04T13:44:07.724Z,56.60
2017-05-04T13:46:37.384Z,55.60
2017-05-04T13:49:06.952Z,55.90
2017-05-04T13:51:36.604Z,56.40
2017-05-04T13:54:07.028Z,56.30
2017-05-04T13:56:37.313Z,56.70
2017-05-04T13:59:06.874Z,55.10
2017-05-04T14:01:37.585Z,54.70
2017-05-04T14:04:07.176Z,53.40
2017-05-04T14:06:36.796Z,52.90
2017-05-04T14:09:06.372Z,52.40
2017-05-04T14:11:36.024Z,52.60
2017-05-04T14:14:05.557Z,51.90
2017-05-04T14:16:36.120Z,51.40
2017-05-04T14:19:05.648Z,49.50
2017-05-04T14:21:36.044Z,50.10
2017-05-04T14:24:05.572Z,51.00
2017-05-04T14:26:35.119Z,51.10
2017-05-04T14:29:04.652Z,52.90
2017-05-04T14:31:34.413Z,51.10
2017-05-04T14:34:04.755Z,51.80
2017-05-04T14:36:35.035Z,50.70
2017-05-04T14:39:04.664Z,51.20
2017-05-04T14:41:34.951Z,50.60
2017-05-04T14:44:04.507Z,49.80
2017-05-04T14:46:34.820Z,50.40
2017-05-04T14:49:05.128Z,50.40
2017-05-04T14:51:34.739Z,51.80
2017-05-04T14:54:04.283Z,50.80
2017-05-04T14:56:33.935Z,49.80
2017-05-04T14:59:03.419Z,49.00
2017-05-04T15:01:33.591Z,49.80
2017-05-04T15:04:03.858Z,47.50
2017-05-04T15:06:33.479Z,47.70
2017-05-04T15:09:03.003Z,47.30
2017-05-04T15:11:32.568Z,48.30
2017-05-04T15:14:02.091Z,49.50
2017-05-04T15:16:31.651Z,48.50
2017-05-04T15:19:01.955Z,49.10
2017-05-04T15:21:32.023Z,49.60
2017-05-04T15:24:02.395Z,49.20
2017-05-04T15:26:31.955Z,48.00
2017-05-04T15:29:01.483Z,47.70
2017-05-04T15:31:31.103Z,48.00
2017-05-04T15:34:00.715Z,48.70
2017-05-04T15:36:30.279Z,49.70
2017-05-04T15:38:59.838Z,51.40
2017-05-04T15:41:30.151Z,54.30
2017-05-04T15:43:59.695Z,55.40
2017-05-04T15:46:29.260Z,56.60
2017-05-04T15:48:58.993Z,58.80
2017-05-04T15:51:29.307Z,61.40
2017-05-04T15:53:59.636Z,58.50
2017-05-04T15:56:31.119Z,55.40
2017-05-04T15:59:00.703Z,53.70
2017-05-04T16:01:30.246Z,54.30
2017-05-04T16:03:59.798Z,58.10
2017-05-04T16:06:30.127Z,57.00
2017-05-04T16:09:00.503Z,55.60
2017-05-04T16:11:30.243Z,58.00
2017-05-04T16:14:01.591Z,59.70
2017-05-04T16:16:31.903Z,61.60
2017-05-04T16:19:01.447Z,60.00
2017-05-04T16:21:31.118Z,59.60
2017-05-04T16:24:00.735Z,61.50
2017-05-04T16:26:30.323Z,60.70
2017-05-04T16:28:59.863Z,60.90
2017-05-04T16:31:30.138Z,60.30
2017-05-04T16:33:59.778Z,60.40
2017-05-04T16:36:29.379Z,61.30
2017-05-04T16:38:58.906Z,61.40
2017-05-04T16:41:28.763Z,61.40
2017-05-04T16:43:58.806Z,61.80
2017-05-04T16:46:28.399Z,61.80
2017-05-04T16:48:58.034Z,62.90
2017-05-04T16:51:27.574Z,63.70
2017-05-04T16:53:57.098Z,65.00
2017-05-04T16:56:26.634Z,65.90
2017-05-04T16:58:56.242Z,67.00
2017-05-04T17:01:26.670Z,69.00
2017-05-04T17:03:56.206Z,69.40
2017-05-04T17:06:26.494Z,71.20
2017-05-04T17:08:56.026Z,72.80
2017-05-04T17:11:25.562Z,74.30
2017-05-04T17:13:55.102Z,74.10
2017-05-04T17:16:24.639Z,73.20
2017-05-04T17:18:54.950Z,74.40
2017-05-04T17:21:25.106Z,75.20
2017-05-04T17:23:54.658Z,75.20
2017-05-04T17:26:24.198Z,75.50
2017-05-04T17:28:54.598Z,74.50
2017-05-04T17:31:24.122Z,74.90
2017-05-04T17:33:54.730Z,74.80
2017-05-04T17:36:25.254Z,74.80
2017-05-04T17:38:54.966Z,74.70
2017-05-04T17:41:24.574Z,75.20
2017-05-04T17:43:54.117Z,75.10
2017-05-04T17:46:23.649Z,74.60
2017-05-04T17:48:53.298Z,75.70
2017-05-04T17:51:22.998Z,76.20
2017-05-04T17:53:52.549Z,75.60
2017-05-04T17:56:22.089Z,75.70
2017-05-04T17:58:51.649Z,75.80
2017-05-04T18:01:21.245Z,77.10
2017-05-04T18:03:51.529Z,77.60
2017-05-04T18:06:21.169Z,76.60
2017-05-04T18:08:50.869Z,76.50
2017-05-04T18:11:21.157Z,77.60
2017-05-04T18:13:50.793Z,76.80
2017-05-04T18:16:20.340Z,76.80
2017-05-04T18:18:49.881Z,76.70
2017-05-04T18:21:19.428Z,76.30
2017-05-04T18:23:49.013Z,77.50
2017-05-04T18:26:18.572Z,77.30
2017-05-04T18:28:48.432Z,76.60
2017-05-04T18:31:17.981Z,75.80
2017-05-04T18:33:47.521Z,75.70
2017-05-04T18:36:17.078Z,76.20
2017-05-04T18:38:46.617Z,76.30
2017-05-04T18:41:16.844Z,76.20
2017-05-04T18:43:46.480Z,75.50
2017-05-04T18:46:16.088Z,75.80
2017-05-04T18:48:45.641Z,76.00
2017-05-04T18:51:15.509Z,75.80
2017-05-04T18:53:45.072Z,76.30
2017-05-04T18:56:14.624Z,76.70
2017-05-04T18:58:44.940Z,77.30
2017-05-04T19:01:14.492Z,77.00
2017-05-04T19:03:44.057Z,77.70
2017-05-04T19:06:13.616Z,77.50
2017-05-04T19:08:43.168Z,77.40
2017-05-04T19:11:12.716Z,77.10
2017-05-04T19:13:42.268Z,78.10
2017-05-04T19:16:11.812Z,78.60
2017-05-04T19:18:41.401Z,78.50
2017-05-04T19:21:10.948Z,77.50
2017-05-04T19:23:40.520Z,77.10
2017-05-04T19:26:10.403Z,77.00
2017-05-04T19:28:39.956Z,76.80
2017-05-04T19:31:09.536Z,78.20
2017-05-04T19:33:39.896Z,79.20
2017-05-04T19:36:11.020Z,78.50
2017-05-04T19:38:41.008Z,79.10
2017-05-04T19:41:11.823Z,80.00
2017-05-04T19:43:41.899Z,79.40
2017-05-04T19:46:11.455Z,79.60
2017-05-04T19:48:41.252Z,80.80
2017-05-04T19:53:41.097Z,81.40
2017-05-04T19:56:10.919Z,81.50
2017-05-04T19:58:41.232Z,82.70
2017-05-04T20:01:10.864Z,82.00
2017-05-04T20:03:40.459Z,83.80
2017-05-04T20:06:10.751Z,83.70
2017-05-04T20:08:40.312Z,83.40
2017-05-04T20:11:09.991Z,83.30
2017-05-04T20:13:40.315Z,82.70
2017-05-04T20:16:09.859Z,82.50
2017-05-04T20:18:39.531Z,82.10
2017-05-04T20:21:09.839Z,83.30
2017-05-04T20:23:39.450Z,83.90
2017-05-04T20:26:09.011Z,83.30
2017-05-04T20:28:39.127Z,82.80
2017-05-04T20:31:08.794Z,83.70
2017-05-04T20:33:39.083Z,83.30
2017-05-04T20:36:09.010Z,82.60
2017-05-04T20:38:38.555Z,83.00
2017-05-04T20:41:08.107Z,84.20
2017-05-04T20:43:37.650Z,83.70
2017-05-04T20:46:08.039Z,83.10
2017-05-04T20:48:37.598Z,82.60
2017-05-04T20:51:07.170Z,82.40
2017-05-04T20:53:36.778Z,82.40
2017-05-04T20:56:06.338Z,82.40
2017-05-04T20:58:35.899Z,82.40
2017-05-04T21:01:06.202Z,83.00
2017-05-04T21:03:35.735Z,82.30
2017-05-04T21:06:06.018Z,82.40
2017-05-04T21:08:35.562Z,82.60
2017-05-04T21:11:05.150Z,82.70
2017-05-04T21:13:34.750Z,82.80
2017-05-04T21:16:04.286Z,82.40
2017-05-04T21:18:34.586Z,82.20
2017-05-04T21:21:04.135Z,83.00
2017-05-04T21:23:33.694Z,83.00
2017-05-04T21:26:03.662Z,83.30
2017-05-04T21:28:33.335Z,84.00
2017-05-04T21:31:03.863Z,83.40
2017-05-04T21:33:34.162Z,84.20
2017-05-04T21:36:03.882Z,84.10
2017-05-04T21:38:33.418Z,84.20
2017-05-04T21:41:02.998Z,84.50
2017-05-04T21:43:33.830Z,84.10
2017-05-04T21:46:03.362Z,83.80
2017-05-04T21:48:32.907Z,83.90
2017-05-04T21:51:02.462Z,84.10
2017-05-04T21:53:32.772Z,84.30
2017-05-04T21:56:03.078Z,84.60
2017-05-04T21:58:32.618Z,84.00
2017-05-04T22:01:02.913Z,84.30
2017-05-04T22:03:32.538Z,83.90
2017-05-04T22:06:02.825Z,83.40
2017-05-04T22:08:32.469Z,84.00
2017-05-04T22:11:02.766Z,83.90
2017-05-04T22:13:32.310Z,84.00
2017-05-04T22:16:02.605Z,84.00
2017-05-04T22:18:32.210Z,84.50
2017-05-04T22:21:02.525Z,84.60
2017-05-04T22:23:32.910Z,84.50
2017-05-04T22:26:02.468Z,84.00
2017-05-04T22:28:32.067Z,84.60
2017-05-04T22:31:01.657Z,84.40
2017-05-04T22:33:31.281Z,84.20
2017-05-04T22:36:00.897Z,83.80
2017-05-04T22:38:31.222Z,83.60
2017-05-04T22:41:01.533Z,83.60
2017-05-04T22:43:31.093Z,83.70
2017-05-04T22:46:00.638Z,83.60
2017-05-04T22:48:30.190Z,83.60
2017-05-04T22:50:59.769Z,84.00
2017-05-04T22:53:30.061Z,83.80
2017-05-04T22:55:59.685Z,83.70
2017-05-04T22:58:29.909Z,83.70
2017-05-04T23:00:59.505Z,83.70
2017-05-04T23:03:29.070Z,83.70
2017-05-04T23:05:59.365Z,83.70
2017-05-04T23:08:29.673Z,83.90
2017-05-04T23:10:59.225Z,83.70
2017-05-04T23:13:28.765Z,83.60
2017-05-04T23:15:58.342Z,83.60
2017-05-04T23:18:28.726Z,83.70
2017-05-04T23:20:59.045Z,84.30
2017-05-04T23:23:28.641Z,84.80
2017-05-04T23:25:58.241Z,85.00
2017-05-04T23:28:27.794Z,84.50
2017-05-04T23:30:57.337Z,84.70
2017-05-04T23:33:26.889Z,84.60
2017-05-04T23:35:57.181Z,84.10
2017-05-04T23:38:26.785Z,83.60
2017-05-04T23:40:56.345Z,83.20
2017-05-04T23:43:25.877Z,83.10
2017-05-04T23:45:55.525Z,83.20
2017-05-04T23:48:25.308Z,83.00
2017-05-04T23:50:54.834Z,82.60
2017-05-04T23:53:25.148Z,83.10
2017-05-04T23:55:54.748Z,83.30
2017-05-04T23:58:24.337Z,83.10
